sensor_id;sensor_type;location;lat;lon;timestamp;temperature;humidity
41427;DHT22;27171;51.812;19.514;2023-03-01T00:00:50;-5.00;99.90
41427;DHT22;27171;51.812;19.514;2023-03-01T00:03:52;-5.10;99.90
41427;DHT22;27171;51.812;19.514;2023-03-01T00:06:53;-5.10;99.90
41427;DHT22;27171;51.812;19.514;2023-03-01T00:09:55;-5.10;99.90
41427;DHT22;27171;51.812;19.514;2023-03-01T00:12:56;-5.10;99.90
41427;DHT22;27171;51.812;19.514;2023-03-01T00:15:57;-5.10;99.90
41427;DHT22;27171;51.812;19.514;2023-03-01T00:18:58;-5.10;99.90
41427;DHT22;27171;51.812;19.514;2023-03-01T00:21:59;-5.20;99.90
41427;DHT22;27171;51.812;19.514;2023-03-01T00:25:00;-5.20;99.90
41427;DHT22;27171;51.812;19.514;2023-03-01T00:28:01;-5.20;99.90
41427;DHT22;27171;51.812;19.514;2023-03-01T00:31:08;-5.20;99.90
41427;DHT22;27171;51.812;19.514;2023-03-01T00:34:09;-5.30;99.90
41427;DHT22;27171;51.812;19.514;2023-03-01T00:37:10;-5.30;99.90
41427;DHT22;27171;51.812;19.514;2023-03-01T00:40:12;-5.30;99.90
41427;DHT22;27171;51.812;19.514;2023-03-01T00:43:13;-5.30;99.90
41427;DHT22;27171;51.812;19.514;2023-03-01T00:46:16;-5.30;99.90
41427;DHT22;27171;51.812;19.514;2023-03-01T00:49:17;-5.40;99.90
41427;DHT22;27171;51.812;19.514;2023-03-01T00:52:19;-5.40;99.90
41427;DHT22;27171;51.812;19.514;2023-03-01T00:55:20;-5.40;99.90
41427;DHT22;27171;51.812;19.514;2023-03-01T00:58:22;-5.40;99.90
41427;DHT22;27171;51.812;19.514;2023-03-01T01:01:26;-5.40;99.90
41427;DHT22;27171;51.812;19.514;2023-03-01T01:04:27;-5.40;99.90
41427;DHT22;27171;51.812;19.514;2023-03-01T01:07:28;-5.40;99.90
41427;DHT22;27171;51.812;19.514;2023-03-01T01:10:30;-5.40;99.90
41427;DHT22;27171;51.812;19.514;2023-03-01T01:13:31;-5.40;99.90
41427;DHT22;27171;51.812;19.514;2023-03-01T01:16:32;-5.40;99.90
41427;DHT22;27171;51.812;19.514;2023-03-01T01:19:33;-5.40;99.90
41427;DHT22;27171;51.812;19.514;2023-03-01T01:22:34;-5.40;99.90
41427;DHT22;27171;51.812;19.514;2023-03-01T01:25:36;-5.50;99.90
41427;DHT22;27171;51.812;19.514;2023-03-01T01:28:37;-5.50;99.90
41427;DHT22;27171;51.812;19.514;2023-03-01T01:31:40;-5.50;99.90
41427;DHT22;27171;51.812;19.514;2023-03-01T01:34:42;-5.50;99.90
41427;DHT22;27171;51.812;19.514;2023-03-01T01:37:43;-5.50;99.90
41427;DHT22;27171;51.812;19.514;2023-03-01T01:40:48;-5.50;99.90
41427;DHT22;27171;51.812;19.514;2023-03-01T01:44:11;-5.60;99.90
41427;DHT22;27171;51.812;19.514;2023-03-01T01:47:18;-5.60;99.90
41427;DHT22;27171;51.812;19.514;2023-03-01T01:50:20;-5.60;99.90
41427;DHT22;27171;51.812;19.514;2023-03-01T01:53:24;-5.60;99.90
41427;DHT22;27171;51.812;19.514;2023-03-01T01:56:26;-5.70;99.90
41427;DHT22;27171;51.812;19.514;2023-03-01T01:59:30;-5.70;99.90
41427;DHT22;27171;51.812;19.514;2023-03-01T02:02:32;-5.70;99.90
41427;DHT22;27171;51.812;19.514;2023-03-01T02:08:52;-5.80;99.90
41427;DHT22;27171;51.812;19.514;2023-03-01T02:11:54;-5.80;99.90
41427;DHT22;27171;51.812;19.514;2023-03-01T02:14:55;-5.80;99.90
41427;DHT22;27171;51.812;19.514;2023-03-01T02:17:56;-5.80;99.90
41427;DHT22;27171;51.812;19.514;2023-03-01T02:30:57;-5.90;99.90
41427;DHT22;27171;51.812;19.514;2023-03-01T02:33:58;-5.90;99.90
41427;DHT22;27171;51.812;19.514;2023-03-01T02:37:10;-5.90;99.90
41427;DHT22;27171;51.812;19.514;2023-03-01T02:40:17;-5.90;99.90
41427;DHT22;27171;51.812;19.514;2023-03-01T02:43:23;-5.90;99.90
41427;DHT22;27171;51.812;19.514;2023-03-01T02:46:26;-5.90;99.90
41427;DHT22;27171;51.812;19.514;2023-03-01T02:49:31;-5.90;99.90
41427;DHT22;27171;51.812;19.514;2023-03-01T02:52:47;-5.90;99.90
41427;DHT22;27171;51.812;19.514;2023-03-01T02:55:50;-5.90;99.90
41427;DHT22;27171;51.812;19.514;2023-03-01T02:58:52;-5.90;99.90
41427;DHT22;27171;51.812;19.514;2023-03-01T03:01:53;-5.90;99.90
41427;DHT22;27171;51.812;19.514;2023-03-01T03:04:54;-5.90;99.90
41427;DHT22;27171;51.812;19.514;2023-03-01T03:07:57;-5.90;99.90
41427;DHT22;27171;51.812;19.514;2023-03-01T03:10:59;-6.00;99.90
41427;DHT22;27171;51.812;19.514;2023-03-01T03:14:00;-6.00;99.90
41427;DHT22;27171;51.812;19.514;2023-03-01T03:17:01;-5.90;99.90
41427;DHT22;27171;51.812;19.514;2023-03-01T03:20:04;-6.00;99.90
41427;DHT22;27171;51.812;19.514;2023-03-01T03:23:05;-6.00;99.90
41427;DHT22;27171;51.812;19.514;2023-03-01T03:26:06;-6.00;99.90
41427;DHT22;27171;51.812;19.514;2023-03-01T03:29:07;-6.00;99.90
41427;DHT22;27171;51.812;19.514;2023-03-01T03:32:08;-6.00;99.90
41427;DHT22;27171;51.812;19.514;2023-03-01T03:35:10;-6.00;99.90
41427;DHT22;27171;51.812;19.514;2023-03-01T03:38:12;-5.90;99.90
41427;DHT22;27171;51.812;19.514;2023-03-01T03:41:14;-5.90;99.90
41427;DHT22;27171;51.812;19.514;2023-03-01T03:44:15;-5.90;99.90
41427;DHT22;27171;51.812;19.514;2023-03-01T03:47:16;-5.90;99.90
41427;DHT22;27171;51.812;19.514;2023-03-01T03:50:18;-5.90;99.90
41427;DHT22;27171;51.812;19.514;2023-03-01T03:53:20;-6.00;99.90
41427;DHT22;27171;51.812;19.514;2023-03-01T03:56:22;-6.00;99.90
41427;DHT22;27171;51.812;19.514;2023-03-01T03:59:23;-6.00;99.90
41427;DHT22;27171;51.812;19.514;2023-03-01T04:02:24;-6.00;99.90
41427;DHT22;27171;51.812;19.514;2023-03-01T04:05:26;-6.00;99.90
41427;DHT22;27171;51.812;19.514;2023-03-01T04:08:27;-6.00;99.90
41427;DHT22;27171;51.812;19.514;2023-03-01T04:11:29;-6.10;99.90
41427;DHT22;27171;51.812;19.514;2023-03-01T04:14:30;-6.00;99.90
41427;DHT22;27171;51.812;19.514;2023-03-01T04:17:31;-6.00;99.90
41427;DHT22;27171;51.812;19.514;2023-03-01T04:20:34;-6.10;99.90
41427;DHT22;27171;51.812;19.514;2023-03-01T04:23:35;-6.10;99.90
41427;DHT22;27171;51.812;19.514;2023-03-01T04:26:36;-6.00;99.90
41427;DHT22;27171;51.812;19.514;2023-03-01T04:29:37;-6.00;99.90
41427;DHT22;27171;51.812;19.514;2023-03-01T04:32:38;-6.10;99.90
41427;DHT22;27171;51.812;19.514;2023-03-01T04:35:40;-6.10;99.90
41427;DHT22;27171;51.812;19.514;2023-03-01T04:38:41;-6.10;99.90
41427;DHT22;27171;51.812;19.514;2023-03-01T04:41:42;-6.10;99.90
41427;DHT22;27171;51.812;19.514;2023-03-01T04:44:44;-6.10;99.90
41427;DHT22;27171;51.812;19.514;2023-03-01T04:47:46;-6.10;99.90
41427;DHT22;27171;51.812;19.514;2023-03-01T04:50:47;-6.10;99.90
41427;DHT22;27171;51.812;19.514;2023-03-01T04:53:48;-6.10;99.90
41427;DHT22;27171;51.812;19.514;2023-03-01T04:56:49;-6.10;99.90
41427;DHT22;27171;51.812;19.514;2023-03-01T04:59:50;-6.00;99.90
41427;DHT22;27171;51.812;19.514;2023-03-01T05:03:00;-6.10;99.90
41427;DHT22;27171;51.812;19.514;2023-03-01T05:06:01;-6.00;99.90
41427;DHT22;27171;51.812;19.514;2023-03-01T05:09:02;-6.00;99.90
41427;DHT22;27171;51.812;19.514;2023-03-01T05:12:03;-6.00;99.90
41427;DHT22;27171;51.812;19.514;2023-03-01T05:15:05;-6.00;99.90
41427;DHT22;27171;51.812;19.514;2023-03-01T05:18:06;-6.00;99.90
41427;DHT22;27171;51.812;19.514;2023-03-01T05:21:10;-6.00;99.90
41427;DHT22;27171;51.812;19.514;2023-03-01T05:24:11;-6.10;99.90
41427;DHT22;27171;51.812;19.514;2023-03-01T05:27:12;-6.00;99.90
41427;DHT22;27171;51.812;19.514;2023-03-01T05:30:14;-6.00;99.90
41427;DHT22;27171;51.812;19.514;2023-03-01T05:33:15;-6.00;99.90
41427;DHT22;27171;51.812;19.514;2023-03-01T05:36:16;-6.00;99.90
41427;DHT22;27171;51.812;19.514;2023-03-01T05:39:17;-6.00;99.90
41427;DHT22;27171;51.812;19.514;2023-03-01T05:42:18;-6.00;99.90
41427;DHT22;27171;51.812;19.514;2023-03-01T05:45:20;-6.00;99.90
41427;DHT22;27171;51.812;19.514;2023-03-01T05:48:21;-5.90;99.90
41427;DHT22;27171;51.812;19.514;2023-03-01T05:51:22;-5.90;99.90
41427;DHT22;27171;51.812;19.514;2023-03-01T05:54:24;-5.90;99.90
41427;DHT22;27171;51.812;19.514;2023-03-01T05:57:25;-5.90;99.90
41427;DHT22;27171;51.812;19.514;2023-03-01T06:00:29;-5.80;99.90
41427;DHT22;27171;51.812;19.514;2023-03-01T06:03:30;-5.80;99.90
41427;DHT22;27171;51.812;19.514;2023-03-01T06:06:36;-5.70;99.90
41427;DHT22;27171;51.812;19.514;2023-03-01T06:09:37;-5.60;99.90
41427;DHT22;27171;51.812;19.514;2023-03-01T06:12:39;-5.50;99.90
41427;DHT22;27171;51.812;19.514;2023-03-01T06:15:41;-5.50;99.90
41427;DHT22;27171;51.812;19.514;2023-03-01T06:18:42;-5.40;99.90
41427;DHT22;27171;51.812;19.514;2023-03-01T06:21:43;-5.30;99.90
41427;DHT22;27171;51.812;19.514;2023-03-01T06:24:44;-5.20;99.90
41427;DHT22;27171;51.812;19.514;2023-03-01T06:27:46;-5.00;99.90
41427;DHT22;27171;51.812;19.514;2023-03-01T06:30:49;-5.00;99.90
41427;DHT22;27171;51.812;19.514;2023-03-01T06:33:50;-4.80;99.90
41427;DHT22;27171;51.812;19.514;2023-03-01T06:36:51;-4.60;99.90
41427;DHT22;27171;51.812;19.514;2023-03-01T06:39:52;-4.40;99.90
41427;DHT22;27171;51.812;19.514;2023-03-01T06:42:53;-4.30;99.90
41427;DHT22;27171;51.812;19.514;2023-03-01T06:45:55;-4.10;99.90
41427;DHT22;27171;51.812;19.514;2023-03-01T06:48:56;-4.00;99.90
41427;DHT22;27171;51.812;19.514;2023-03-01T06:51:57;-3.80;99.90
41427;DHT22;27171;51.812;19.514;2023-03-01T06:54:58;-3.60;99.90
41427;DHT22;27171;51.812;19.514;2023-03-01T06:58:01;-3.50;99.90
41427;DHT22;27171;51.812;19.514;2023-03-01T07:01:09;-3.30;99.90
41427;DHT22;27171;51.812;19.514;2023-03-01T07:04:12;-3.10;99.90
41427;DHT22;27171;51.812;19.514;2023-03-01T07:07:13;-3.00;99.90
41427;DHT22;27171;51.812;19.514;2023-03-01T07:10:14;-2.80;99.90
41427;DHT22;27171;51.812;19.514;2023-03-01T07:13:15;-2.70;99.90
41427;DHT22;27171;51.812;19.514;2023-03-01T07:16:16;-2.50;99.90
41427;DHT22;27171;51.812;19.514;2023-03-01T07:19:17;-2.40;99.90
41427;DHT22;27171;51.812;19.514;2023-03-01T07:22:18;-2.30;99.90
41427;DHT22;27171;51.812;19.514;2023-03-01T07:25:19;-2.10;99.90
41427;DHT22;27171;51.812;19.514;2023-03-01T07:28:23;-2.00;99.90
41427;DHT22;27171;51.812;19.514;2023-03-01T07:31:24;-1.90;99.90
41427;DHT22;27171;51.812;19.514;2023-03-01T07:34:25;-1.70;99.90
41427;DHT22;27171;51.812;19.514;2023-03-01T07:37:26;-1.60;99.90
41427;DHT22;27171;51.812;19.514;2023-03-01T07:40:28;-1.40;99.90
41427;DHT22;27171;51.812;19.514;2023-03-01T07:43:29;-1.30;99.90
41427;DHT22;27171;51.812;19.514;2023-03-01T07:46:30;-1.10;99.90
41427;DHT22;27171;51.812;19.514;2023-03-01T07:49:32;-1.00;99.90
41427;DHT22;27171;51.812;19.514;2023-03-01T07:52:33;-0.80;99.90
41427;DHT22;27171;51.812;19.514;2023-03-01T07:55:34;-0.70;99.90
41427;DHT22;27171;51.812;19.514;2023-03-01T07:58:38;-0.50;99.90
41427;DHT22;27171;51.812;19.514;2023-03-01T08:01:39;-0.40;99.90
41427;DHT22;27171;51.812;19.514;2023-03-01T08:04:40;-0.30;99.90
41427;DHT22;27171;51.812;19.514;2023-03-01T08:07:42;-0.20;99.90
41427;DHT22;27171;51.812;19.514;2023-03-01T08:10:42;-0.10;99.90
41427;DHT22;27171;51.812;19.514;2023-03-01T08:13:44;0.00;99.90
41427;DHT22;27171;51.812;19.514;2023-03-01T08:16:44;0.10;99.90
41427;DHT22;27171;51.812;19.514;2023-03-01T08:19:45;0.20;99.90
41427;DHT22;27171;51.812;19.514;2023-03-01T08:22:46;0.30;99.90
41427;DHT22;27171;51.812;19.514;2023-03-01T08:25:48;0.40;99.90
41427;DHT22;27171;51.812;19.514;2023-03-01T08:28:49;0.50;99.90
41427;DHT22;27171;51.812;19.514;2023-03-01T08:31:51;0.60;99.90
41427;DHT22;27171;51.812;19.514;2023-03-01T08:34:52;0.70;99.90
41427;DHT22;27171;51.812;19.514;2023-03-01T08:37:53;0.80;99.90
41427;DHT22;27171;51.812;19.514;2023-03-01T08:40:54;0.80;99.90
41427;DHT22;27171;51.812;19.514;2023-03-01T08:43:55;0.90;99.90
41427;DHT22;27171;51.812;19.514;2023-03-01T08:46:56;1.00;99.90
41427;DHT22;27171;51.812;19.514;2023-03-01T08:49:58;1.10;99.90
41427;DHT22;27171;51.812;19.514;2023-03-01T08:52:58;1.20;99.90
41427;DHT22;27171;51.812;19.514;2023-03-01T08:56:00;1.30;99.90
41427;DHT22;27171;51.812;19.514;2023-03-01T08:59:02;1.40;99.90
41427;DHT22;27171;51.812;19.514;2023-03-01T09:02:03;1.50;99.90
41427;DHT22;27171;51.812;19.514;2023-03-01T09:05:05;1.60;99.90
41427;DHT22;27171;51.812;19.514;2023-03-01T09:08:06;1.70;99.90
41427;DHT22;27171;51.812;19.514;2023-03-01T09:11:08;1.80;99.90
41427;DHT22;27171;51.812;19.514;2023-03-01T09:14:10;1.90;99.90
41427;DHT22;27171;51.812;19.514;2023-03-01T09:17:12;2.00;99.90
41427;DHT22;27171;51.812;19.514;2023-03-01T09:20:13;2.10;99.90
41427;DHT22;27171;51.812;19.514;2023-03-01T09:23:14;2.20;99.90
41427;DHT22;27171;51.812;19.514;2023-03-01T09:26:20;2.20;99.90
41427;DHT22;27171;51.812;19.514;2023-03-01T09:29:23;2.30;99.90
41427;DHT22;27171;51.812;19.514;2023-03-01T09:32:26;2.40;99.90
41427;DHT22;27171;51.812;19.514;2023-03-01T09:35:27;2.60;99.90
41427;DHT22;27171;51.812;19.514;2023-03-01T09:38:30;2.70;99.90
41427;DHT22;27171;51.812;19.514;2023-03-01T09:41:47;2.70;99.90
41427;DHT22;27171;51.812;19.514;2023-03-01T09:44:59;2.90;99.90
41427;DHT22;27171;51.812;19.514;2023-03-01T09:48:01;2.90;99.90
41427;DHT22;27171;51.812;19.514;2023-03-01T09:51:09;3.00;99.90
41427;DHT22;27171;51.812;19.514;2023-03-01T09:54:13;3.00;99.90
41427;DHT22;27171;51.812;19.514;2023-03-01T09:57:19;3.10;99.90
41427;DHT22;27171;51.812;19.514;2023-03-01T10:10:27;3.40;99.90
41427;DHT22;27171;51.812;19.514;2023-03-01T10:13:43;3.40;99.90
41427;DHT22;27171;51.812;19.514;2023-03-01T10:17:10;3.50;99.90
41427;DHT22;27171;51.812;19.514;2023-03-01T10:23:17;3.60;99.90
41427;DHT22;27171;51.812;19.514;2023-03-01T10:26:52;3.60;99.90
41427;DHT22;27171;51.812;19.514;2023-03-01T10:29:47;3.70;99.90
41427;DHT22;27171;51.812;19.514;2023-03-01T10:32:51;3.80;99.90
41427;DHT22;27171;51.812;19.514;2023-03-01T10:35:53;3.80;99.90
41427;DHT22;27171;51.812;19.514;2023-03-01T10:38:56;3.90;99.90
41427;DHT22;27171;51.812;19.514;2023-03-01T10:42:07;4.00;99.90
41427;DHT22;27171;51.812;19.514;2023-03-01T10:50:22;4.20;98.70
41427;DHT22;27171;51.812;19.514;2023-03-01T10:53:29;4.30;99.90
41427;DHT22;27171;51.812;19.514;2023-03-01T10:56:49;4.40;91.70
41427;DHT22;27171;51.812;19.514;2023-03-01T11:03:14;4.50;94.60
41427;DHT22;27171;51.812;19.514;2023-03-01T11:06:22;4.60;91.60
41427;DHT22;27171;51.812;19.514;2023-03-01T11:09:24;4.60;92.80
41427;DHT22;27171;51.812;19.514;2023-03-01T11:12:25;4.70;93.80
41427;DHT22;27171;51.812;19.514;2023-03-01T11:15:28;4.70;94.10
41427;DHT22;27171;51.812;19.514;2023-03-01T11:18:30;4.80;94.40
41427;DHT22;27171;51.812;19.514;2023-03-01T11:21:33;4.90;95.20
41427;DHT22;27171;51.812;19.514;2023-03-01T11:24:47;4.90;93.30
41427;DHT22;27171;51.812;19.514;2023-03-01T11:27:49;5.00;91.80
41427;DHT22;27171;51.812;19.514;2023-03-01T11:31:09;5.00;94.20
41427;DHT22;27171;51.812;19.514;2023-03-01T11:34:19;5.10;93.70
41427;DHT22;27171;51.812;19.514;2023-03-01T11:38:11;5.10;94.60
41427;DHT22;27171;51.812;19.514;2023-03-01T11:41:08;5.10;92.60
41427;DHT22;27171;51.812;19.514;2023-03-01T11:44:38;5.20;91.00
41427;DHT22;27171;51.812;19.514;2023-03-01T11:51:46;5.30;90.20
41427;DHT22;27171;51.812;19.514;2023-03-01T12:01:46;5.50;91.20
41427;DHT22;27171;51.812;19.514;2023-03-01T12:05:10;5.50;91.70
41427;DHT22;27171;51.812;19.514;2023-03-01T12:08:33;5.60;91.90
41427;DHT22;27171;51.812;19.514;2023-03-01T12:11:49;5.70;92.50
41427;DHT22;27171;51.812;19.514;2023-03-01T12:27:49;6.00;84.00
41427;DHT22;27171;51.812;19.514;2023-03-01T12:50:48;6.50;82.10
41427;DHT22;27171;51.812;19.514;2023-03-01T12:53:53;6.60;80.60
41427;DHT22;27171;51.812;19.514;2023-03-01T12:56:57;6.70;70.70
41427;DHT22;27171;51.812;19.514;2023-03-01T13:03:31;6.60;70.70
41427;DHT22;27171;51.812;19.514;2023-03-01T13:10:00;6.70;70.00
41427;DHT22;27171;51.812;19.514;2023-03-01T13:13:13;6.70;67.60
41427;DHT22;27171;51.812;19.514;2023-03-01T13:19:29;6.70;68.00
41427;DHT22;27171;51.812;19.514;2023-03-01T13:22:33;6.80;72.10
41427;DHT22;27171;51.812;19.514;2023-03-01T13:25:34;6.90;71.80
41427;DHT22;27171;51.812;19.514;2023-03-01T13:34:43;6.90;64.30
41427;DHT22;27171;51.812;19.514;2023-03-01T13:37:44;6.90;68.60
41427;DHT22;27171;51.812;19.514;2023-03-01T13:43:53;6.90;68.40
41427;DHT22;27171;51.812;19.514;2023-03-01T13:46:58;6.80;67.10
41427;DHT22;27171;51.812;19.514;2023-03-01T13:50:02;6.80;67.00
41427;DHT22;27171;51.812;19.514;2023-03-01T13:53:06;6.80;68.80
41427;DHT22;27171;51.812;19.514;2023-03-01T13:56:21;6.90;68.70
41427;DHT22;27171;51.812;19.514;2023-03-01T13:59:24;6.90;67.40
41427;DHT22;27171;51.812;19.514;2023-03-01T14:02:25;7.00;71.20
41427;DHT22;27171;51.812;19.514;2023-03-01T14:05:26;7.00;73.10
41427;DHT22;27171;51.812;19.514;2023-03-01T14:08:30;7.00;72.60
41427;DHT22;27171;51.812;19.514;2023-03-01T14:15:10;7.00;75.30
41427;DHT22;27171;51.812;19.514;2023-03-01T14:18:20;6.90;76.60
41427;DHT22;27171;51.812;19.514;2023-03-01T14:21:23;6.90;78.00
41427;DHT22;27171;51.812;19.514;2023-03-01T14:24:24;6.90;79.10
41427;DHT22;27171;51.812;19.514;2023-03-01T14:27:26;6.90;80.70
41427;DHT22;27171;51.812;19.514;2023-03-01T14:30:34;6.90;81.30
41427;DHT22;27171;51.812;19.514;2023-03-01T14:33:37;6.90;82.40
41427;DHT22;27171;51.812;19.514;2023-03-01T14:36:38;6.90;82.10
41427;DHT22;27171;51.812;19.514;2023-03-01T14:39:40;6.90;83.70
41427;DHT22;27171;51.812;19.514;2023-03-01T14:42:41;6.90;83.70
41427;DHT22;27171;51.812;19.514;2023-03-01T14:45:47;6.80;84.10
41427;DHT22;27171;51.812;19.514;2023-03-01T14:48:57;6.80;83.90
41427;DHT22;27171;51.812;19.514;2023-03-01T14:52:07;6.80;84.70
41427;DHT22;27171;51.812;19.514;2023-03-01T14:55:20;6.70;82.80
41427;DHT22;27171;51.812;19.514;2023-03-01T14:58:24;6.70;84.70
41427;DHT22;27171;51.812;19.514;2023-03-01T15:01:26;6.70;83.50
41427;DHT22;27171;51.812;19.514;2023-03-01T15:04:29;6.70;84.20
41427;DHT22;27171;51.812;19.514;2023-03-01T15:07:34;6.70;84.80
41427;DHT22;27171;51.812;19.514;2023-03-01T15:10:37;6.60;85.20
41427;DHT22;27171;51.812;19.514;2023-03-01T15:13:40;6.60;86.50
41427;DHT22;27171;51.812;19.514;2023-03-01T15:16:41;6.60;85.10
41427;DHT22;27171;51.812;19.514;2023-03-01T15:19:42;6.50;85.90
41427;DHT22;27171;51.812;19.514;2023-03-01T15:22:46;6.50;86.30
41427;DHT22;27171;51.812;19.514;2023-03-01T15:25:48;6.40;86.30
41427;DHT22;27171;51.812;19.514;2023-03-01T15:28:51;6.30;86.00
41427;DHT22;27171;51.812;19.514;2023-03-01T15:38:55;6.20;88.50
41427;DHT22;27171;51.812;19.514;2023-03-01T15:41:57;6.10;88.20
41427;DHT22;27171;51.812;19.514;2023-03-01T15:48:19;5.90;89.60
41427;DHT22;27171;51.812;19.514;2023-03-01T15:51:29;5.90;90.10
41427;DHT22;27171;51.812;19.514;2023-03-01T15:54:31;5.80;90.10
41427;DHT22;27171;51.812;19.514;2023-03-01T15:57:32;5.70;90.40
41427;DHT22;27171;51.812;19.514;2023-03-01T16:00:33;5.70;90.70
41427;DHT22;27171;51.812;19.514;2023-03-01T16:03:34;5.60;90.60
41427;DHT22;27171;51.812;19.514;2023-03-01T16:06:35;5.50;91.00
41427;DHT22;27171;51.812;19.514;2023-03-01T16:09:36;5.40;91.80
41427;DHT22;27171;51.812;19.514;2023-03-01T16:12:38;5.40;92.20
41427;DHT22;27171;51.812;19.514;2023-03-01T16:15:39;5.30;92.30
41427;DHT22;27171;51.812;19.514;2023-03-01T16:18:43;5.20;92.00
41427;DHT22;27171;51.812;19.514;2023-03-01T16:21:45;5.10;92.80
41427;DHT22;27171;51.812;19.514;2023-03-01T16:24:46;5.10;93.20
41427;DHT22;27171;51.812;19.514;2023-03-01T16:27:49;5.00;93.40
41427;DHT22;27171;51.812;19.514;2023-03-01T16:30:50;4.90;93.70
41427;DHT22;27171;51.812;19.514;2023-03-01T16:33:53;4.80;94.50
41427;DHT22;27171;51.812;19.514;2023-03-01T16:36:54;4.60;95.10
41427;DHT22;27171;51.812;19.514;2023-03-01T16:39:55;4.50;95.60
41427;DHT22;27171;51.812;19.514;2023-03-01T16:42:57;4.40;96.20
41427;DHT22;27171;51.812;19.514;2023-03-01T16:45:59;4.20;96.30
41427;DHT22;27171;51.812;19.514;2023-03-01T16:49:00;4.10;97.10
41427;DHT22;27171;51.812;19.514;2023-03-01T16:52:01;3.90;97.40
41427;DHT22;27171;51.812;19.514;2023-03-01T16:55:03;3.70;97.90
41427;DHT22;27171;51.812;19.514;2023-03-01T16:58:05;3.50;99.00
41427;DHT22;27171;51.812;19.514;2023-03-01T17:01:18;3.30;98.90
41427;DHT22;27171;51.812;19.514;2023-03-01T17:04:22;3.10;99.20
41427;DHT22;27171;51.812;19.514;2023-03-01T17:07:24;2.90;99.70
41427;DHT22;27171;51.812;19.514;2023-03-01T17:10:25;2.80;99.90
41427;DHT22;27171;51.812;19.514;2023-03-01T17:13:26;2.60;99.90
41427;DHT22;27171;51.812;19.514;2023-03-01T17:16:28;2.40;99.90
41427;DHT22;27171;51.812;19.514;2023-03-01T17:19:29;2.30;99.90
41427;DHT22;27171;51.812;19.514;2023-03-01T17:22:31;2.10;99.90
41427;DHT22;27171;51.812;19.514;2023-03-01T17:25:35;2.00;99.90
41427;DHT22;27171;51.812;19.514;2023-03-01T17:28:38;1.90;99.90
41427;DHT22;27171;51.812;19.514;2023-03-01T17:31:40;1.80;99.90
41427;DHT22;27171;51.812;19.514;2023-03-01T17:34:41;1.60;99.90
41427;DHT22;27171;51.812;19.514;2023-03-01T17:37:43;1.50;99.90
41427;DHT22;27171;51.812;19.514;2023-03-01T17:40:45;1.40;99.90
41427;DHT22;27171;51.812;19.514;2023-03-01T17:43:47;1.30;99.90
41427;DHT22;27171;51.812;19.514;2023-03-01T17:46:48;1.20;99.90
41427;DHT22;27171;51.812;19.514;2023-03-01T17:49:55;1.10;99.90
41427;DHT22;27171;51.812;19.514;2023-03-01T17:53:01;1.00;99.90
41427;DHT22;27171;51.812;19.514;2023-03-01T17:56:04;0.90;99.90
41427;DHT22;27171;51.812;19.514;2023-03-01T17:59:06;0.80;99.90
41427;DHT22;27171;51.812;19.514;2023-03-01T18:02:09;0.70;99.90
41427;DHT22;27171;51.812;19.514;2023-03-01T18:05:12;0.70;99.90
41427;DHT22;27171;51.812;19.514;2023-03-01T18:08:14;0.60;99.90
41427;DHT22;27171;51.812;19.514;2023-03-01T18:11:18;0.50;99.90
41427;DHT22;27171;51.812;19.514;2023-03-01T18:14:20;0.40;99.90
41427;DHT22;27171;51.812;19.514;2023-03-01T18:17:23;0.30;99.90
41427;DHT22;27171;51.812;19.514;2023-03-01T18:20:26;0.20;99.90
41427;DHT22;27171;51.812;19.514;2023-03-01T18:23:30;0.20;99.90
41427;DHT22;27171;51.812;19.514;2023-03-01T18:26:32;0.10;99.90
41427;DHT22;27171;51.812;19.514;2023-03-01T18:29:34;0.10;99.90
41427;DHT22;27171;51.812;19.514;2023-03-01T18:32:36;0.00;99.90
41427;DHT22;27171;51.812;19.514;2023-03-01T18:35:38;0.00;99.90
41427;DHT22;27171;51.812;19.514;2023-03-01T18:38:41;0.00;99.90
41427;DHT22;27171;51.812;19.514;2023-03-01T18:41:43;-0.10;99.90
41427;DHT22;27171;51.812;19.514;2023-03-01T18:44:45;0.00;99.90
41427;DHT22;27171;51.812;19.514;2023-03-01T18:47:46;-0.10;99.90
41427;DHT22;27171;51.812;19.514;2023-03-01T18:50:48;-0.10;99.90
41427;DHT22;27171;51.812;19.514;2023-03-01T18:53:50;-0.20;99.90
41427;DHT22;27171;51.812;19.514;2023-03-01T18:56:52;-0.20;99.90
41427;DHT22;27171;51.812;19.514;2023-03-01T18:59:55;-0.30;99.90
41427;DHT22;27171;51.812;19.514;2023-03-01T19:02:58;-0.30;99.90
41427;DHT22;27171;51.812;19.514;2023-03-01T19:06:00;-0.40;99.90
41427;DHT22;27171;51.812;19.514;2023-03-01T19:09:01;-0.40;99.90
41427;DHT22;27171;51.812;19.514;2023-03-01T19:12:03;-0.50;99.90
41427;DHT22;27171;51.812;19.514;2023-03-01T19:15:06;-0.50;99.90
41427;DHT22;27171;51.812;19.514;2023-03-01T19:18:07;-0.60;99.90
41427;DHT22;27171;51.812;19.514;2023-03-01T19:21:09;-0.60;99.90
41427;DHT22;27171;51.812;19.514;2023-03-01T19:24:11;-0.60;99.90
41427;DHT22;27171;51.812;19.514;2023-03-01T19:27:12;-0.70;99.90
41427;DHT22;27171;51.812;19.514;2023-03-01T19:30:14;-0.70;99.90
41427;DHT22;27171;51.812;19.514;2023-03-01T19:33:15;-0.70;99.90
41427;DHT22;27171;51.812;19.514;2023-03-01T19:36:17;-0.80;99.90
41427;DHT22;27171;51.812;19.514;2023-03-01T19:39:18;-0.80;99.90
41427;DHT22;27171;51.812;19.514;2023-03-01T19:42:19;-0.90;99.90
41427;DHT22;27171;51.812;19.514;2023-03-01T19:45:20;-0.90;99.90
41427;DHT22;27171;51.812;19.514;2023-03-01T19:48:21;-0.90;99.90
41427;DHT22;27171;51.812;19.514;2023-03-01T19:51:23;-0.90;99.90
41427;DHT22;27171;51.812;19.514;2023-03-01T19:54:24;-1.00;99.90
41427;DHT22;27171;51.812;19.514;2023-03-01T19:57:25;-1.00;99.90
41427;DHT22;27171;51.812;19.514;2023-03-01T20:00:26;-1.10;99.90
41427;DHT22;27171;51.812;19.514;2023-03-01T20:03:29;-1.10;99.90
41427;DHT22;27171;51.812;19.514;2023-03-01T20:06:31;-1.10;99.90
41427;DHT22;27171;51.812;19.514;2023-03-01T20:09:32;-1.20;99.90
41427;DHT22;27171;51.812;19.514;2023-03-01T20:12:36;-1.20;99.90
41427;DHT22;27171;51.812;19.514;2023-03-01T20:15:41;-1.20;99.90
41427;DHT22;27171;51.812;19.514;2023-03-01T20:18:55;-1.20;99.90
41427;DHT22;27171;51.812;19.514;2023-03-01T20:21:57;-1.30;99.90
41427;DHT22;27171;51.812;19.514;2023-03-01T20:24:58;-1.20;99.90
41427;DHT22;27171;51.812;19.514;2023-03-01T20:28:00;-1.30;99.90
41427;DHT22;27171;51.812;19.514;2023-03-01T20:31:09;-1.30;99.90
41427;DHT22;27171;51.812;19.514;2023-03-01T20:34:14;-1.30;99.90
41427;DHT22;27171;51.812;19.514;2023-03-01T20:37:21;-1.40;99.90
41427;DHT22;27171;51.812;19.514;2023-03-01T20:40:23;-1.40;99.90
41427;DHT22;27171;51.812;19.514;2023-03-01T20:43:24;-1.50;99.90
41427;DHT22;27171;51.812;19.514;2023-03-01T20:46:26;-1.50;99.90
41427;DHT22;27171;51.812;19.514;2023-03-01T20:49:27;-1.50;99.90
41427;DHT22;27171;51.812;19.514;2023-03-01T20:52:28;-1.50;99.90
41427;DHT22;27171;51.812;19.514;2023-03-01T20:55:29;-1.50;99.90
41427;DHT22;27171;51.812;19.514;2023-03-01T20:58:30;-1.50;99.90